sensor_id;sensor_type;location;lat;lon;timestamp;pressure;altitude;pressure_sealevel;temperature;humidity
49585;BME280;35491;49.142;9.210;2023-03-31T00:00:28;99239.41;;;12.64;61.71
49585;BME280;35491;49.142;9.210;2023-03-31T00:01:30;99235.53;;;12.67;61.59
49585;BME280;35491;49.142;9.210;2023-03-31T00:02:34;99235.41;;;12.60;61.73
49585;BME280;35491;49.142;9.210;2023-03-31T00:03:37;99228.38;;;12.59;61.78
49585;BME280;35491;49.142;9.210;2023-03-31T00:04:43;99227.88;;;12.56;61.93
49585;BME280;35491;49.142;9.210;2023-03-31T00:05:45;99229.38;;;12.58;61.88
49585;BME280;35491;49.142;9.210;2023-03-31T00:06:53;99221.31;;;12.58;61.84
49585;BME280;35491;49.142;9.210;2023-03-31T00:07:57;99219.31;;;12.60;61.65
49585;BME280;35491;49.142;9.210;2023-03-31T00:09:00;99211.94;;;12.62;61.31
49585;BME280;35491;49.142;9.210;2023-03-31T00:10:05;99206.22;;;12.66;61.28
49585;BME280;35491;49.142;9.210;2023-03-31T00:11:07;99200.84;;;12.66;61.42
49585;BME280;35491;49.142;9.210;2023-03-31T00:12:14;99205.72;;;12.62;61.71
49585;BME280;35491;49.142;9.210;2023-03-31T00:13:16;99203.56;;;12.57;61.51
49585;BME280;35491;49.142;9.210;2023-03-31T00:14:20;99199.19;;;12.64;61.61
49585;BME280;35491;49.142;9.210;2023-03-31T00:15:24;99192.44;;;12.69;61.36
49585;BME280;35491;49.142;9.210;2023-03-31T00:16:25;99193.75;;;12.73;61.09
49585;BME280;35491;49.142;9.210;2023-03-31T00:17:29;99192.09;;;12.72;61.20
49585;BME280;35491;49.142;9.210;2023-03-31T00:18:32;99189.41;;;12.72;61.36
49585;BME280;35491;49.142;9.210;2023-03-31T00:19:38;99185.72;;;12.73;61.49
49585;BME280;35491;49.142;9.210;2023-03-31T00:20:42;99191.78;;;12.67;61.50
49585;BME280;35491;49.142;9.210;2023-03-31T00:21:43;99195.97;;;12.69;61.33
49585;BME280;35491;49.142;9.210;2023-03-31T00:22:47;99175.69;;;12.67;61.59
49585;BME280;35491;49.142;9.210;2023-03-31T00:23:48;99179.50;;;12.72;61.15
49585;BME280;35491;49.142;9.210;2023-03-31T00:24:52;99176.66;;;12.74;61.30
49585;BME280;35491;49.142;9.210;2023-03-31T00:25:53;99174.31;;;12.71;61.27
49585;BME280;35491;49.142;9.210;2023-03-31T00:27:07;99177.28;;;12.76;60.96
49585;BME280;35491;49.142;9.210;2023-03-31T00:28:11;99176.66;;;12.74;60.97
49585;BME280;35491;49.142;9.210;2023-03-31T00:29:15;99182.91;;;12.66;61.42
49585;BME280;35491;49.142;9.210;2023-03-31T00:31:47;99171.84;;;12.69;61.77
49585;BME280;35491;49.142;9.210;2023-03-31T00:35:29;99160.31;;;12.60;61.73
49585;BME280;35491;49.142;9.210;2023-03-31T00:36:31;99156.69;;;12.53;61.90
49585;BME280;35491;49.142;9.210;2023-03-31T00:37:36;99154.69;;;12.55;62.16
49585;BME280;35491;49.142;9.210;2023-03-31T00:38:37;99150.34;;;12.54;61.94
49585;BME280;35491;49.142;9.210;2023-03-31T00:39:45;99159.38;;;12.53;62.08
49585;BME280;35491;49.142;9.210;2023-03-31T00:40:46;99147.00;;;12.52;62.40
49585;BME280;35491;49.142;9.210;2023-03-31T00:41:50;99149.00;;;12.50;62.47
49585;BME280;35491;49.142;9.210;2023-03-31T00:42:51;99147.81;;;12.53;62.16
49585;BME280;35491;49.142;9.210;2023-03-31T00:44:05;99146.91;;;12.60;62.21
49585;BME280;35491;49.142;9.210;2023-03-31T00:45:20;99139.41;;;12.56;62.43
49585;BME280;35491;49.142;9.210;2023-03-31T00:46:28;99150.81;;;12.58;62.20
49585;BME280;35491;49.142;9.210;2023-03-31T00:47:36;99139.13;;;12.51;62.70
49585;BME280;35491;49.142;9.210;2023-03-31T00:48:41;99145.78;;;12.55;62.16
49585;BME280;35491;49.142;9.210;2023-03-31T00:49:46;99134.91;;;12.56;62.26
49585;BME280;35491;49.142;9.210;2023-03-31T00:50:51;99128.69;;;12.56;62.10
49585;BME280;35491;49.142;9.210;2023-03-31T00:51:54;99136.25;;;12.52;62.65
49585;BME280;35491;49.142;9.210;2023-03-31T00:53:00;99124.53;;;12.53;62.21
49585;BME280;35491;49.142;9.210;2023-03-31T00:54:03;99123.41;;;12.47;62.50
49585;BME280;35491;49.142;9.210;2023-03-31T00:55:10;99125.78;;;12.42;62.57
49585;BME280;35491;49.142;9.210;2023-03-31T00:56:14;99129.97;;;12.45;62.84
49585;BME280;35491;49.142;9.210;2023-03-31T00:57:19;99118.38;;;12.44;62.50
49585;BME280;35491;49.142;9.210;2023-03-31T00:58:21;99118.66;;;12.35;62.69
49585;BME280;35491;49.142;9.210;2023-03-31T00:59:33;99120.31;;;12.36;62.93
49585;BME280;35491;49.142;9.210;2023-03-31T01:00:35;99113.75;;;12.38;62.74
49585;BME280;35491;49.142;9.210;2023-03-31T01:01:39;99122.34;;;12.33;63.27
49585;BME280;35491;49.142;9.210;2023-03-31T01:02:42;99123.88;;;12.28;63.37
49585;BME280;35491;49.142;9.210;2023-03-31T01:03:51;99118.34;;;12.29;63.23
49585;BME280;35491;49.142;9.210;2023-03-31T01:04:53;99112.81;;;12.31;63.09
49585;BME280;35491;49.142;9.210;2023-03-31T01:05:59;99115.19;;;12.26;63.44
49585;BME280;35491;49.142;9.210;2023-03-31T01:07:04;99110.66;;;12.26;63.45
49585;BME280;35491;49.142;9.210;2023-03-31T01:08:09;99117.69;;;12.27;63.32
49585;BME280;35491;49.142;9.210;2023-03-31T01:09:11;99119.25;;;12.22;63.51
49585;BME280;35491;49.142;9.210;2023-03-31T01:10:16;99110.34;;;12.21;63.55
49585;BME280;35491;49.142;9.210;2023-03-31T01:11:18;99109.34;;;12.22;63.49
49585;BME280;35491;49.142;9.210;2023-03-31T01:12:22;99105.47;;;12.25;63.25
49585;BME280;35491;49.142;9.210;2023-03-31T01:13:25;99101.25;;;12.30;63.22
49585;BME280;35491;49.142;9.210;2023-03-31T01:14:32;99104.34;;;12.19;63.39
49585;BME280;35491;49.142;9.210;2023-03-31T01:15:34;99096.13;;;12.21;63.25
49585;BME280;35491;49.142;9.210;2023-03-31T01:16:37;99107.31;;;12.24;63.12
49585;BME280;35491;49.142;9.210;2023-03-31T01:17:39;99100.66;;;12.20;63.67
49585;BME280;35491;49.142;9.210;2023-03-31T01:18:44;99098.50;;;12.15;63.79
49585;BME280;35491;49.142;9.210;2023-03-31T01:19:51;99096.84;;;12.14;63.59
49585;BME280;35491;49.142;9.210;2023-03-31T01:21:10;99088.16;;;12.12;63.75
49585;BME280;35491;49.142;9.210;2023-03-31T01:23:48;99091.38;;;12.08;64.17
49585;BME280;35491;49.142;9.210;2023-03-31T01:25:07;99093.38;;;12.06;64.11
49585;BME280;35491;49.142;9.210;2023-03-31T01:27:42;99091.19;;;12.09;63.77
49585;BME280;35491;49.142;9.210;2023-03-31T01:28:50;99086.72;;;12.01;64.24
49585;BME280;35491;49.142;9.210;2023-03-31T01:30:08;99093.72;;;12.02;64.50
49585;BME280;35491;49.142;9.210;2023-03-31T01:31:32;99095.41;;;12.04;64.38
49585;BME280;35491;49.142;9.210;2023-03-31T01:34:12;99088.03;;;12.06;64.13
49585;BME280;35491;49.142;9.210;2023-03-31T01:41:22;99090.06;;;12.04;64.40
49585;BME280;35491;49.142;9.210;2023-03-31T01:42:29;99084.06;;;11.93;64.43
49585;BME280;35491;49.142;9.210;2023-03-31T01:43:35;99087.75;;;11.92;64.27
49585;BME280;35491;49.142;9.210;2023-03-31T01:44:44;99081.22;;;11.95;64.39
49585;BME280;35491;49.142;9.210;2023-03-31T01:45:49;99083.41;;;11.99;64.22
49585;BME280;35491;49.142;9.210;2023-03-31T01:46:56;99076.97;;;12.09;64.05
49585;BME280;35491;49.142;9.210;2023-03-31T01:48:00;99080.28;;;12.11;64.10
49585;BME280;35491;49.142;9.210;2023-03-31T01:49:07;99076.47;;;12.05;64.07
49585;BME280;35491;49.142;9.210;2023-03-31T01:50:17;99083.41;;;11.99;64.24
49585;BME280;35491;49.142;9.210;2023-03-31T01:51:24;99080.38;;;11.94;64.40
49585;BME280;35491;49.142;9.210;2023-03-31T01:52:33;99073.53;;;11.92;64.31
49585;BME280;35491;49.142;9.210;2023-03-31T01:53:41;99075.53;;;11.90;64.42
49585;BME280;35491;49.142;9.210;2023-03-31T01:54:45;99067.31;;;11.99;64.34
49585;BME280;35491;49.142;9.210;2023-03-31T01:55:56;99059.75;;;12.03;64.11
49585;BME280;35491;49.142;9.210;2023-03-31T01:57:02;99059.56;;;12.05;63.92
49585;BME280;35491;49.142;9.210;2023-03-31T01:58:10;99066.59;;;12.06;63.91
49585;BME280;35491;49.142;9.210;2023-03-31T01:59:13;99054.34;;;12.11;63.50
49585;BME280;35491;49.142;9.210;2023-03-31T02:00:20;99052.47;;;12.12;63.50
49585;BME280;35491;49.142;9.210;2023-03-31T02:01:24;99054.34;;;12.11;63.37
49585;BME280;35491;49.142;9.210;2023-03-31T02:02:31;99048.84;;;12.05;63.71
49585;BME280;35491;49.142;9.210;2023-03-31T02:03:37;99051.81;;;12.10;63.52
49585;BME280;35491;49.142;9.210;2023-03-31T02:04:48;99052.00;;;12.08;63.50
49585;BME280;35491;49.142;9.210;2023-03-31T02:05:51;99045.19;;;12.06;63.54
49585;BME280;35491;49.142;9.210;2023-03-31T02:06:56;99045.53;;;12.02;63.55
49585;BME280;35491;49.142;9.210;2023-03-31T02:08:00;99044.81;;;12.09;63.73
49585;BME280;35491;49.142;9.210;2023-03-31T02:09:07;99046.38;;;12.03;63.64
49585;BME280;35491;49.142;9.210;2023-03-31T02:10:10;99052.53;;;12.04;63.69
49585;BME280;35491;49.142;9.210;2023-03-31T02:11:15;99047.78;;;12.14;63.66
49585;BME280;35491;49.142;9.210;2023-03-31T02:12:19;99055.47;;;12.17;63.46
49585;BME280;35491;49.142;9.210;2023-03-31T02:13:24;99050.47;;;12.14;63.33
49585;BME280;35491;49.142;9.210;2023-03-31T02:14:27;99050.75;;;12.19;63.51
49585;BME280;35491;49.142;9.210;2023-03-31T02:15:33;99050.66;;;12.12;63.63
49585;BME280;35491;49.142;9.210;2023-03-31T02:16:36;99054.88;;;12.07;63.92
49585;BME280;35491;49.142;9.210;2023-03-31T02:17:41;99057.75;;;11.97;64.48
49585;BME280;35491;49.142;9.210;2023-03-31T02:18:45;99049.91;;;11.95;64.57
49585;BME280;35491;49.142;9.210;2023-03-31T02:19:50;99052.91;;;12.00;64.32
49585;BME280;35491;49.142;9.210;2023-03-31T02:20:53;99047.03;;;11.97;64.77
49585;BME280;35491;49.142;9.210;2023-03-31T02:21:58;99053.28;;;11.97;64.56
49585;BME280;35491;49.142;9.210;2023-03-31T02:23:04;99058.25;;;12.00;64.72
49585;BME280;35491;49.142;9.210;2023-03-31T02:24:10;99048.56;;;11.99;64.91
49585;BME280;35491;49.142;9.210;2023-03-31T02:25:14;99043.72;;;11.95;65.05
49585;BME280;35491;49.142;9.210;2023-03-31T02:26:20;99037.03;;;11.91;64.81
49585;BME280;35491;49.142;9.210;2023-03-31T02:27:26;99042.56;;;11.97;64.93
49585;BME280;35491;49.142;9.210;2023-03-31T02:28:30;99036.84;;;11.92;65.15
49585;BME280;35491;49.142;9.210;2023-03-31T02:29:35;99028.16;;;11.98;64.99
49585;BME280;35491;49.142;9.210;2023-03-31T02:30:38;99034.66;;;11.96;65.24
49585;BME280;35491;49.142;9.210;2023-03-31T02:31:46;99026.78;;;12.02;64.83
49585;BME280;35491;49.142;9.210;2023-03-31T02:32:51;99020.06;;;12.07;65.16
49585;BME280;35491;49.142;9.210;2023-03-31T02:33:56;99023.28;;;12.02;65.63
49585;BME280;35491;49.142;9.210;2023-03-31T02:34:57;99023.44;;;12.00;65.38
49585;BME280;35491;49.142;9.210;2023-03-31T02:36:02;99025.28;;;12.00;65.51
49585;BME280;35491;49.142;9.210;2023-03-31T02:37:03;99016.06;;;12.02;65.14
49585;BME280;35491;49.142;9.210;2023-03-31T02:38:08;99014.38;;;12.01;65.38
49585;BME280;35491;49.142;9.210;2023-03-31T02:39:10;99014.69;;;12.07;65.63
49585;BME280;35491;49.142;9.210;2023-03-31T02:40:16;99011.00;;;12.08;65.62
49585;BME280;35491;49.142;9.210;2023-03-31T02:41:17;99016.53;;;12.06;65.59
49585;BME280;35491;49.142;9.210;2023-03-31T02:42:21;99008.88;;;12.03;65.75
49585;BME280;35491;49.142;9.210;2023-03-31T02:43:25;99006.22;;;11.95;65.55
49585;BME280;35491;49.142;9.210;2023-03-31T02:44:28;99008.56;;;11.98;65.42
49585;BME280;35491;49.142;9.210;2023-03-31T02:45:37;99010.03;;;12.00;65.58
49585;BME280;35491;49.142;9.210;2023-03-31T02:46:41;99003.34;;;11.96;65.49
49585;BME280;35491;49.142;9.210;2023-03-31T02:47:45;98999.50;;;11.99;65.40
49585;BME280;35491;49.142;9.210;2023-03-31T02:48:47;99001.00;;;12.01;65.44
49585;BME280;35491;49.142;9.210;2023-03-31T02:49:54;98995.00;;;11.99;65.66
49585;BME280;35491;49.142;9.210;2023-03-31T02:53:38;98984.50;;;11.90;65.72
49585;BME280;35491;49.142;9.210;2023-03-31T02:54:45;98984.16;;;11.93;65.53
49585;BME280;35491;49.142;9.210;2023-03-31T02:55:54;98983.63;;;11.97;65.57
49585;BME280;35491;49.142;9.210;2023-03-31T02:57:06;98985.97;;;11.92;65.81
49585;BME280;35491;49.142;9.210;2023-03-31T02:59:36;98973.91;;;11.96;65.77
49585;BME280;35491;49.142;9.210;2023-03-31T03:00:48;98967.69;;;11.96;65.96
49585;BME280;35491;49.142;9.210;2023-03-31T03:01:57;98967.06;;;11.94;65.73
49585;BME280;35491;49.142;9.210;2023-03-31T03:03:08;98949.47;;;11.99;65.60
49585;BME280;35491;49.142;9.210;2023-03-31T03:04:20;98936.59;;;11.95;65.69
49585;BME280;35491;49.142;9.210;2023-03-31T03:05:34;98942.06;;;12.01;65.73
49585;BME280;35491;49.142;9.210;2023-03-31T03:06:49;98933.50;;;12.06;65.28
49585;BME280;35491;49.142;9.210;2023-03-31T03:08:00;98936.47;;;12.11;65.41
49585;BME280;35491;49.142;9.210;2023-03-31T03:09:06;98925.38;;;12.14;65.25
49585;BME280;35491;49.142;9.210;2023-03-31T03:10:11;98922.53;;;12.16;65.33
49585;BME280;35491;49.142;9.210;2023-03-31T03:11:18;98920.13;;;12.21;65.11
49585;BME280;35491;49.142;9.210;2023-03-31T03:12:23;98907.38;;;12.23;64.83
49585;BME280;35491;49.142;9.210;2023-03-31T03:13:30;98894.63;;;12.25;64.80
49585;BME280;35491;49.142;9.210;2023-03-31T03:14:38;98883.53;;;12.28;64.38
49585;BME280;35491;49.142;9.210;2023-03-31T03:15:46;98888.72;;;12.30;64.49
49585;BME280;35491;49.142;9.210;2023-03-31T03:16:48;98888.53;;;12.31;64.46
49585;BME280;35491;49.142;9.210;2023-03-31T03:17:56;98894.53;;;12.33;64.20
49585;BME280;35491;49.142;9.210;2023-03-31T03:19:04;98873.75;;;12.36;64.36
49585;BME280;35491;49.142;9.210;2023-03-31T03:20:09;98875.59;;;12.35;64.34
49585;BME280;35491;49.142;9.210;2023-03-31T03:21:11;98870.88;;;12.37;64.36
49585;BME280;35491;49.142;9.210;2023-03-31T03:22:14;98860.97;;;12.38;64.28
49585;BME280;35491;49.142;9.210;2023-03-31T03:23:16;98865.72;;;12.36;64.13
49585;BME280;35491;49.142;9.210;2023-03-31T03:24:20;98862.38;;;12.33;63.82
49585;BME280;35491;49.142;9.210;2023-03-31T03:25:22;98855.16;;;12.34;64.30
49585;BME280;35491;49.142;9.210;2023-03-31T03:26:26;98857.47;;;12.37;63.90
49585;BME280;35491;49.142;9.210;2023-03-31T03:27:27;98851.66;;;12.33;64.07
49585;BME280;35491;49.142;9.210;2023-03-31T03:28:32;98848.13;;;12.33;63.61
49585;BME280;35491;49.142;9.210;2023-03-31T03:29:33;98852.22;;;12.29;63.99
49585;BME280;35491;49.142;9.210;2023-03-31T03:30:39;98844.66;;;12.32;63.67
49585;BME280;35491;49.142;9.210;2023-03-31T03:31:40;98844.00;;;12.30;63.31
49585;BME280;35491;49.142;9.210;2023-03-31T03:32:44;98844.00;;;12.30;63.69
49585;BME280;35491;49.142;9.210;2023-03-31T03:33:45;98841.16;;;12.32;63.29
49585;BME280;35491;49.142;9.210;2023-03-31T03:34:49;98840.50;;;12.30;63.42
49585;BME280;35491;49.142;9.210;2023-03-31T03:35:50;98844.00;;;12.30;63.08
49585;BME280;35491;49.142;9.210;2023-03-31T03:36:54;98826.63;;;12.26;63.09
49585;BME280;35491;49.142;9.210;2023-03-31T03:37:58;98829.03;;;12.21;63.46
49585;BME280;35491;49.142;9.210;2023-03-31T03:38:59;98830.13;;;12.27;63.26
49585;BME280;35491;49.142;9.210;2023-03-31T03:40:04;98830.34;;;12.25;63.33
49585;BME280;35491;49.142;9.210;2023-03-31T03:41:05;98835.50;;;12.27;63.04
49585;BME280;35491;49.142;9.210;2023-03-31T03:42:09;98835.22;;;12.22;63.51
49585;BME280;35491;49.142;9.210;2023-03-31T03:43:10;98829.94;;;12.28;63.12
49585;BME280;35491;49.142;9.210;2023-03-31T03:44:14;98837.63;;;12.31;63.00
49585;BME280;35491;49.142;9.210;2023-03-31T03:45:18;98831.25;;;12.32;63.03
49585;BME280;35491;49.142;9.210;2023-03-31T03:46:25;98830.03;;;12.35;62.77
49585;BME280;35491;49.142;9.210;2023-03-31T03:47:26;98823.28;;;12.39;62.86
49585;BME280;35491;49.142;9.210;2023-03-31T03:48:30;98821.06;;;12.43;62.83
49585;BME280;35491;49.142;9.210;2023-03-31T03:49:31;98815.25;;;12.39;63.12
49585;BME280;35491;49.142;9.210;2023-03-31T03:50:35;98817.03;;;12.32;63.08
49585;BME280;35491;49.142;9.210;2023-03-31T03:51:36;98812.94;;;12.36;62.92
49585;BME280;35491;49.142;9.210;2023-03-31T03:52:40;98803.22;;;12.35;62.57
49585;BME280;35491;49.142;9.210;2023-03-31T03:53:41;98801.66;;;12.41;62.42
49585;BME280;35491;49.142;9.210;2023-03-31T03:54:45;98791.94;;;12.40;62.27
49585;BME280;35491;49.142;9.210;2023-03-31T03:55:46;98791.59;;;12.43;62.67
49585;BME280;35491;49.142;9.210;2023-03-31T03:56:51;98784.81;;;12.47;62.20
49585;BME280;35491;49.142;9.210;2023-03-31T03:57:52;98784.44;;;12.50;62.32
49585;BME280;35491;49.142;9.210;2023-03-31T03:58:56;98773.38;;;12.53;61.93
49585;BME280;35491;49.142;9.210;2023-03-31T03:59:58;98770.59;;;12.46;62.03
49585;BME280;35491;49.142;9.210;2023-03-31T04:01:07;98758.31;;;12.52;61.76
49585;BME280;35491;49.142;9.210;2023-03-31T04:02:11;98752.56;;;12.55;61.78
49585;BME280;35491;49.142;9.210;2023-03-31T04:03:15;98755.63;;;12.52;61.68
49585;BME280;35491;49.142;9.210;2023-03-31T04:04:16;98748.59;;;12.51;61.46
49585;BME280;35491;49.142;9.210;2023-03-31T04:05:27;98739.34;;;12.54;61.91
49585;BME280;35491;49.142;9.210;2023-03-31T04:06:28;98741.19;;;12.53;61.79
49585;BME280;35491;49.142;9.210;2023-03-31T04:07:32;98746.56;;;12.53;61.65
49585;BME280;35491;49.142;9.210;2023-03-31T04:08:33;98732.97;;;12.55;61.80
49585;BME280;35491;49.142;9.210;2023-03-31T04:09:36;98725.22;;;12.45;61.64
49585;BME280;35491;49.142;9.210;2023-03-31T04:10:37;98730.16;;;12.41;61.52
49585;BME280;35491;49.142;9.210;2023-03-31T04:11:45;98724.22;;;12.46;61.83
49585;BME280;35491;49.142;9.210;2023-03-31T04:12:47;98724.66;;;12.50;61.21
49585;BME280;35491;49.142;9.210;2023-03-31T04:13:50;98737.63;;;12.46;61.76
49585;BME280;35491;49.142;9.210;2023-03-31T04:14:51;98735.00;;;12.53;61.73
49585;BME280;35491;49.142;9.210;2023-03-31T04:15:55;98737.88;;;12.51;61.64
49585;BME280;35491;49.142;9.210;2023-03-31T04:16:56;98734.81;;;12.54;61.80
49585;BME280;35491;49.142;9.210;2023-03-31T04:18:02;98723.91;;;12.56;61.44
49585;BME280;35491;49.142;9.210;2023-03-31T04:19:04;98722.59;;;12.52;61.63
49585;BME280;35491;49.142;9.210;2023-03-31T04:20:08;98720.41;;;12.55;61.44
49585;BME280;35491;49.142;9.210;2023-03-31T04:21:11;98727.78;;;12.53;61.48
49585;BME280;35491;49.142;9.210;2023-03-31T04:22:22;98735.75;;;12.46;61.40
49585;BME280;35491;49.142;9.210;2023-03-31T04:23:28;98739.81;;;12.42;61.50
49585;BME280;35491;49.142;9.210;2023-03-31T04:24:32;98735.69;;;12.40;61.89
49585;BME280;35491;49.142;9.210;2023-03-31T04:25:38;98737.41;;;12.47;61.55
49585;BME280;35491;49.142;9.210;2023-03-31T04:26:45;98739.00;;;12.42;61.93
49585;BME280;35491;49.142;9.210;2023-03-31T04:27:50;98738.25;;;12.48;61.79
49585;BME280;35491;49.142;9.210;2023-03-31T04:28:54;98746.28;;;12.48;61.72
49585;BME280;35491;49.142;9.210;2023-03-31T04:30:01;98743.06;;;12.38;61.89
49585;BME280;35491;49.142;9.210;2023-03-31T04:31:09;98738.63;;;12.45;61.85
49585;BME280;35491;49.142;9.210;2023-03-31T04:32:14;98732.19;;;12.39;61.95
49585;BME280;35491;49.142;9.210;2023-03-31T04:33:23;98742.69;;;12.41;61.80
49585;BME280;35491;49.142;9.210;2023-03-31T04:34:25;98732.25;;;12.46;61.58
49585;BME280;35491;49.142;9.210;2023-03-31T04:35:34;98720.91;;;12.44;61.76
49585;BME280;35491;49.142;9.210;2023-03-31T04:36:49;98707.03;;;12.40;61.67
49585;BME280;35491;49.142;9.210;2023-03-31T04:37:55;98696.38;;;12.47;61.81
49585;BME280;35491;49.142;9.210;2023-03-31T04:38:59;98694.97;;;12.51;61.70
49585;BME280;35491;49.142;9.210;2023-03-31T04:40:03;98696.66;;;12.52;61.25
49585;BME280;35491;49.142;9.210;2023-03-31T04:41:09;98696.00;;;12.50;61.45
49585;BME280;35491;49.142;9.210;2023-03-31T04:42:13;98707.56;;;12.51;61.66
49585;BME280;35491;49.142;9.210;2023-03-31T04:43:14;98713.41;;;12.39;61.90
49585;BME280;35491;49.142;9.210;2023-03-31T04:44:18;98709.72;;;12.40;62.13
49585;BME280;35491;49.142;9.210;2023-03-31T04:45:19;98718.38;;;12.42;61.98
49585;BME280;35491;49.142;9.210;2023-03-31T04:46:23;98712.97;;;12.36;61.68
49585;BME280;35491;49.142;9.210;2023-03-31T04:47:25;98713.13;;;12.34;62.06
49585;BME280;35491;49.142;9.210;2023-03-31T04:48:35;98705.81;;;12.43;61.63
49585;BME280;35491;49.142;9.210;2023-03-31T04:49:37;98708.50;;;12.43;61.66
49585;BME280;35491;49.142;9.210;2023-03-31T04:50:40;98708.22;;;12.38;61.76
49585;BME280;35491;49.142;9.210;2023-03-31T04:51:42;98703.16;;;12.43;61.83
49585;BME280;35491;49.142;9.210;2023-03-31T04:52:45;98703.78;;;12.45;61.58
49585;BME280;35491;49.142;9.210;2023-03-31T04:53:46;98699.25;;;12.45;61.72
49585;BME280;35491;49.142;9.210;2023-03-31T04:54:50;98691.22;;;12.45;61.66
49585;BME280;35491;49.142;9.210;2023-03-31T04:55:52;98687.06;;;12.43;62.15
49585;BME280;35491;49.142;9.210;2023-03-31T04:56:56;98683.75;;;12.41;62.17
49585;BME280;35491;49.142;9.210;2023-03-31T04:57:57;98689.94;;;12.41;62.01
49585;BME280;35491;49.142;9.210;2023-03-31T04:59:00;98686.22;;;12.42;62.21
49585;BME280;35491;49.142;9.210;2023-03-31T05:00:03;98682.16;;;12.46;61.91
49585;BME280;35491;49.142;9.210;2023-03-31T05:01:08;98676.34;;;12.43;62.10
49585;BME280;35491;49.142;9.210;2023-03-31T05:02:09;98673.66;;;12.43;62.38
49585;BME280;35491;49.142;9.210;2023-03-31T05:03:13;98673.09;;;12.47;62.19
49585;BME280;35491;49.142;9.210;2023-03-31T05:04:17;98676.78;;;12.46;62.22
49585;BME280;35491;49.142;9.210;2023-03-31T05:05:21;98678.81;;;12.44;62.38
49585;BME280;35491;49.142;9.210;2023-03-31T05:06:22;98677.59;;;12.47;62.09
49585;BME280;35491;49.142;9.210;2023-03-31T05:07:26;98685.66;;;12.47;62.27
49585;BME280;35491;49.142;9.210;2023-03-31T05:08:27;98685.03;;;12.45;62.54
49585;BME280;35491;49.142;9.210;2023-03-31T05:09:31;98684.22;;;12.29;62.81
49585;BME280;35491;49.142;9.210;2023-03-31T05:10:35;98696.69;;;12.37;62.85
49585;BME280;35491;49.142;9.210;2023-03-31T05:11:36;98687.34;;;12.33;63.18
49585;BME280;35491;49.142;9.210;2023-03-31T05:12:40;98692.03;;;12.24;63.40
49585;BME280;35491;49.142;9.210;2023-03-31T05:13:41;98696.44;;;12.32;63.38
49585;BME280;35491;49.142;9.210;2023-03-31T05:14:47;98691.25;;;12.30;63.54
49585;BME280;35491;49.142;9.210;2023-03-31T05:15:51;98694.34;;;12.27;64.03
49585;BME280;35491;49.142;9.210;2023-03-31T05:16:54;98685.44;;;12.27;64.09
49585;BME280;35491;49.142;9.210;2023-03-31T05:17:58;98688.78;;;12.29;64.34
49585;BME280;35491;49.142;9.210;2023-03-31T05:19:00;98684.88;;;12.31;64.42
49585;BME280;35491;49.142;9.210;2023-03-31T05:20:07;98685.66;;;12.25;64.28
49585;BME280;35491;49.142;9.210;2023-03-31T05:21:09;98668.81;;;12.31;64.19
49585;BME280;35491;49.142;9.210;2023-03-31T05:22:13;98678.94;;;12.36;63.79
49585;BME280;35491;49.142;9.210;2023-03-31T05:23:20;98673.78;;;12.35;64.32
49585;BME280;35491;49.142;9.210;2023-03-31T05:24:23;98673.38;;;12.16;65.11
49585;BME280;35491;49.142;9.210;2023-03-31T05:25:24;98671.59;;;12.23;65.14
49585;BME280;35491;49.142;9.210;2023-03-31T05:26:32;98678.53;;;12.17;65.12
49585;BME280;35491;49.142;9.210;2023-03-31T05:27:34;98682.88;;;12.19;65.60
49585;BME280;35491;49.142;9.210;2023-03-31T05:28:38;98677.72;;;12.17;65.66
49585;BME280;35491;49.142;9.210;2023-03-31T05:29:39;98691.75;;;12.19;66.02
49585;BME280;35491;49.142;9.210;2023-03-31T05:30:43;98692.13;;;12.16;66.11
49585;BME280;35491;49.142;9.210;2023-03-31T05:31:47;98683.44;;;12.14;66.52
49585;BME280;35491;49.142;9.210;2023-03-31T05:32:48;98687.50;;;12.10;67.03
49585;BME280;35491;49.142;9.210;2023-03-31T05:33:52;98687.63;;;12.01;67.26
49585;BME280;35491;49.142;9.210;2023-03-31T05:34:53;98685.41;;;12.05;67.25
49585;BME280;35491;49.142;9.210;2023-03-31T05:36:01;98699.63;;;11.91;67.89
49585;BME280;35491;49.142;9.210;2023-03-31T05:37:02;98693.25;;;11.92;68.15
49585;BME280;35491;49.142;9.210;2023-03-31T05:38:16;98689.72;;;11.91;68.92
49585;BME280;35491;49.142;9.210;2023-03-31T05:39:17;98701.66;;;11.89;68.78
49585;BME280;35491;49.142;9.210;2023-03-31T05:40:21;98694.25;;;11.91;68.81
49585;BME280;35491;49.142;9.210;2023-03-31T05:41:22;98707.75;;;11.82;69.79
49585;BME280;35491;49.142;9.210;2023-03-31T05:42:37;98704.22;;;11.82;70.11
49585;BME280;35491;49.142;9.210;2023-03-31T05:43:41;98712.00;;;11.62;71.55
49585;BME280;35491;49.142;9.210;2023-03-31T05:44:43;98701.56;;;11.52;72.23
49585;BME280;35491;49.142;9.210;2023-03-31T05:45:47;98700.84;;;11.58;71.81
49585;BME280;35491;49.142;9.210;2023-03-31T05:46:48;98703.22;;;11.53;72.65
49585;BME280;35491;49.142;9.210;2023-03-31T05:47:56;98711.34;;;11.45;72.92
49585;BME280;35491;49.142;9.210;2023-03-31T05:48:57;98708.31;;;11.48;73.01
49585;BME280;35491;49.142;9.210;2023-03-31T05:50:02;98712.53;;;11.42;73.46
49585;BME280;35491;49.142;9.210;2023-03-31T05:51:17;98711.34;;;11.45;73.73
49585;BME280;35491;49.142;9.210;2023-03-31T05:52:22;98706.81;;;11.30;74.86
49585;BME280;35491;49.142;9.210;2023-03-31T05:53:23;98699.91;;;11.36;74.56
49585;BME280;35491;49.142;9.210;2023-03-31T05:54:27;98691.47;;;11.39;74.75
49585;BME280;35491;49.142;9.210;2023-03-31T05:55:31;98689.34;;;11.34;75.05
49585;BME280;35491;49.142;9.210;2023-03-31T05:56:33;98687.72;;;11.33;75.09
49585;BME280;35491;49.142;9.210;2023-03-31T05:57:37;98677.03;;;11.33;74.68
49585;BME280;35491;49.142;9.210;2023-03-31T05:58:38;98675.34;;;11.32;74.39
49585;BME280;35491;49.142;9.210;2023-03-31T05:59:42;98673.22;;;11.28;75.16
49585;BME280;35491;49.142;9.210;2023-03-31T06:00:45;98658.91;;;11.35;74.56
49585;BME280;35491;49.142;9.210;2023-03-31T06:01:47;98661.03;;;11.40;74.17